TAF Text Data
IDs:
Format:
Raw Decoded Include METAR

Data at: 1451 UTC 27 Nov 2021

KPQI 271120Z 2712/2812 32010KT 6SM -SN SCT015 OVC040
  TEMPO 2712/2715 2SM -SN OVC015
  FM271500 29012G20KT 2SM -SHSN OVC015
  FM271800 27014G24KT 3SM -SHSN BLSN OVC018
  FM272100 26013G23KT 6SM BLSN OVC025
  FM280200 27010KT P6SM OVC040